Time;durP1;ratioP1;P1;durP2;ratioP2;P2;SDS_P1;SDS_P2;PMS_P1;PMS_P2;Temp;Humidity;BMP_temperature;BMP_pressure;BME280_temperature;BME280_humidity;BME280_pressure;Samples;Min_cycle;Max_cycle;Signal;HPM_P1;HPM_P2
2023/09/18 00:01:08;;;;;;;3.15;1.52;;;;;;;22.38;79.74;100379.66;5011109;28;20080;-65
2023/09/18 00:03:33;;;;;;;2.30;1.55;;;;;;;22.27;80.95;100381.97;5017645;28;20111;-66
2023/09/18 00:05:59;;;;;;;2.47;1.90;;;;;;;22.09;81.25;100368.03;5009266;28;20038;-65
2023/09/18 00:08:24;;;;;;;2.90;1.42;;;;;;;22.08;81.48;100361.03;5017237;28;20429;-65
2023/09/18 00:10:54;;;;;;;2.78;1.50;;;;;;;22.02;81.69;100366.31;5000904;28;20116;-65
2023/09/18 00:13:20;;;;;;;4.28;2.10;;;;;;;22.00;82.21;100359.72;5017274;28;20057;-65
2023/09/18 00:15:49;;;;;;;2.58;1.67;;;;;;;21.89;82.65;100359.28;5028645;28;20060;-65
2023/09/18 00:18:15;;;;;;;3.25;1.88;;;;;;;21.83;83.18;100361.81;5073691;28;20111;-65
2023/09/18 00:20:41;;;;;;;2.95;1.70;;;;;;;21.80;82.85;100356.38;5074813;28;20131;-65
2023/09/18 00:23:08;;;;;;;3.30;2.00;;;;;;;21.78;83.29;100356.81;5065398;28;20488;-65
2023/09/18 00:25:33;;;;;;;2.17;1.70;;;;;;;21.76;83.11;100363.94;5065126;28;20473;-65
2023/09/18 00:27:59;;;;;;;2.78;1.88;;;;;;;21.68;83.43;100346.19;5075999;28;20056;-65
2023/09/18 00:30:25;;;;;;;3.70;1.95;;;;;;;21.68;83.48;100344.19;5070160;28;20062;-65
2023/09/18 00:32:50;;;;;;;2.08;1.60;;;;;;;21.66;83.82;100345.88;5068480;28;20087;-65
2023/09/18 00:35:16;;;;;;;2.85;1.65;;;;;;;21.62;83.92;100340.50;5074647;28;20040;-65
2023/09/18 00:37:42;;;;;;;2.33;1.48;;;;;;;21.63;83.99;100333.00;5071751;28;20170;-65
2023/09/18 00:40:08;;;;;;;2.85;1.75;;;;;;;21.52;84.27;100331.34;5070516;28;20037;-65
2023/09/18 00:42:34;;;;;;;2.95;1.70;;;;;;;21.44;84.56;100326.53;5073692;28;20043;-65
2023/09/18 00:44:59;;;;;;;2.08;1.45;;;;;;;21.42;84.85;100323.47;5068965;28;20512;-65
2023/09/18 00:47:25;;;;;;;1.63;1.38;;;;;;;21.35;85.13;100321.69;5077338;28;20030;-65
2023/09/18 00:49:52;;;;;;;4.18;1.83;;;;;;;21.40;84.82;100323.13;5072887;28;20028;-65
2023/09/18 00:52:20;;;;;;;2.97;1.65;;;;;;;21.43;84.78;100327.72;5067741;28;20040;-65
2023/09/18 00:54:47;;;;;;;3.30;1.73;;;;;;;21.47;84.68;100311.94;5056174;28;20036;-65
2023/09/18 00:57:12;;;;;;;3.17;2.00;;;;;;;21.41;84.68;100308.97;5074954;28;20031;-64
2023/09/18 00:59:39;;;;;;;3.38;1.92;;;;;;;21.39;85.09;100305.91;5074846;28;21486;-65
2023/09/18 01:02:04;;;;;;;3.55;1.85;;;;;;;21.41;84.96;100306.25;5070822;28;20477;-65
2023/09/18 01:04:32;;;;;;;3.10;1.58;;;;;;;21.49;84.41;100304.81;5075107;28;20115;-65
2023/09/18 01:06:59;;;;;;;2.10;1.50;;;;;;;21.48;84.64;100305.28;5068119;28;20028;-65
2023/09/18 01:09:24;;;;;;;2.72;1.55;;;;;;;21.34;84.96;100300.97;5074340;28;20040;-65
2023/09/18 01:12:13;;;;;;;2.30;1.55;;;;;;;21.35;85.26;100299.75;5069748;28;20512;-65
2023/09/18 01:15:10;;;;;;;1.88;1.50;;;;;;;21.19;85.34;100288.91;5047709;28;20117;-65
2023/09/18 01:17:40;;;;;;;4.18;1.80;;;;;;;21.30;85.64;100283.88;5084641;28;20032;-65
2023/09/18 01:20:08;;;;;;;5.68;1.73;;;;;;;21.35;85.32;100277.84;5064681;28;20048;-64
2023/09/18 01:22:34;;;;;;;2.30;1.63;;;;;;;21.35;85.25;100280.56;5073161;28;20028;-65
2023/09/18 01:24:59;;;;;;;5.68;1.98;;;;;;;21.35;84.84;100268.88;5064099;28;20409;-65
2023/09/18 01:27:25;;;;;;;3.20;1.83;;;;;;;21.38;84.76;100271.50;5070181;28;20030;-65
2023/09/18 01:29:50;;;;;;;3.22;1.75;;;;;;;21.26;85.06;100266.00;5062946;28;20034;-65
2023/09/18 01:32:17;;;;;;;2.08;1.63;;;;;;;21.23;84.91;100269.63;5064030;28;20163;-65
2023/09/18 01:34:46;;;;;;;3.10;2.10;;;;;;;21.21;85.41;100253.63;5070324;28;20131;-65
2023/09/18 01:37:13;;;;;;;2.53;1.42;;;;;;;21.19;85.56;100250.56;5070578;28;20672;-65
2023/09/18 01:39:39;;;;;;;4.40;1.85;;;;;;;21.20;85.69;100246.59;5065334;28;20487;-64
2023/09/18 01:42:06;;;;;;;2.78;1.85;;;;;;;21.12;85.48;100244.50;5069368;28;20108;-65
2023/09/18 01:44:33;;;;;;;2.78;1.40;;;;;;;21.18;85.45;100242.75;5071052;28;20062;-65
2023/09/18 01:47:02;;;;;;;2.45;1.77;;;;;;;21.18;85.34;100235.31;5066237;28;20052;-65
2023/09/18 01:49:38;;;;;;;2.65;1.75;;;;;;;21.13;85.60;100232.34;5063845;28;20028;-65
2023/09/18 01:52:05;;;;;;;2.50;1.90;;;;;;;21.05;86.04;100223.56;5071882;28;20040;-64
2023/09/18 01:54:31;;;;;;;2.95;2.00;;;;;;;21.01;85.91;100225.66;5061282;28;20027;-64
2023/09/18 01:56:57;;;;;;;2.55;1.70;;;;;;;20.99;86.37;100219.03;5068624;28;20163;-65
2023/09/18 01:59:24;;;;;;;2.20;1.65;;;;;;;21.00;86.15;100220.59;5066882;28;20564;-64
2023/09/18 02:01:55;;;;;;;3.17;1.90;;;;;;;21.01;86.09;100209.22;5070238;28;20500;-64
2023/09/18 02:04:22;;;;;;;3.20;1.98;;;;;;;21.05;86.37;100215.34;5065134;28;20039;-64
2023/09/18 02:06:50;;;;;;;2.38;1.58;;;;;;;20.99;86.15;100203.38;5069632;28;20082;-66
2023/09/18 02:09:16;;;;;;;2.53;1.70;;;;;;;21.01;86.38;100205.69;5072775;28;20032;-64
2023/09/18 02:11:44;;;;;;;2.08;1.60;;;;;;;20.97;86.38;100207.75;5068376;28;20036;-65
2023/09/18 02:14:10;;;;;;;4.32;2.80;;;;;;;20.94;86.31;100206.66;5072462;28;20044;-64
2023/09/18 02:16:37;;;;;;;3.92;1.85;;;;;;;20.91;86.40;100187.56;5064154;28;20035;-64
2023/09/18 02:19:03;;;;;;;3.90;2.00;;;;;;;20.87;86.99;100181.44;5066821;28;20471;-64
2023/09/18 02:21:29;;;;;;;3.78;2.00;;;;;;;20.89;86.54;100185.28;5066250;28;20067;-64
2023/09/18 02:23:55;;;;;;;2.88;1.80;;;;;;;20.86;86.60;100174.44;5067918;28;20118;-64
2023/09/18 02:26:21;;;;;;;3.22;1.80;;;;;;;20.83;87.13;100175.31;5070473;28;20393;-65
2023/09/18 02:28:47;;;;;;;2.67;1.67;;;;;;;20.85;86.22;100176.41;5055442;28;20029;-64
2023/09/18 02:31:13;;;;;;;12.55;1.92;;;;;;;20.84;86.74;100180.34;5064489;28;20044;-65
2023/09/18 02:33:39;;;;;;;2.83;1.90;;;;;;;20.76;86.86;100170.81;5063077;28;20055;-64
2023/09/18 02:36:05;;;;;;;3.50;1.98;;;;;;;20.71;87.00;100162.38;5060590;28;20036;-65
2023/09/18 02:38:30;;;;;;;2.72;1.80;;;;;;;20.74;87.30;100162.25;5067933;28;20436;-64
2023/09/18 02:40:56;;;;;;;3.38;1.67;;;;;;;20.72;87.53;100163.91;5066979;28;20040;-64
2023/09/18 02:43:23;;;;;;;2.95;2.00;;;;;;;20.70;87.48;100167.06;5069873;28;20046;-64
2023/09/18 02:45:50;;;;;;;3.08;1.67;;;;;;;20.66;87.41;100171.88;5067755;28;20109;-64
2023/09/18 02:48:16;;;;;;;1.83;1.67;;;;;;;20.64;87.66;100158.63;5054905;28;20056;-65
2023/09/18 02:50:42;;;;;;;3.40;2.03;;;;;;;20.68;87.48;100159.31;5062091;28;20043;-65
2023/09/18 02:53:11;;;;;;;2.20;1.73;;;;;;;20.73;87.24;100149.75;5061430;28;20033;-65
2023/09/18 02:55:36;;;;;;;3.25;1.88;;;;;;;20.72;87.06;100153.72;5062795;28;20047;-65
2023/09/18 02:58:03;;;;;;;2.65;1.60;;;;;;;20.67;87.20;100151.53;5064493;28;20505;-64
2023/09/18 03:00:28;;;;;;;2.72;1.75;;;;;;;20.62;87.65;100144.63;5066183;28;20043;-64
2023/09/18 03:02:54;;;;;;;2.40;1.60;;;;;;;20.60;87.57;100135.28;5066424;28;20169;-65
2023/09/18 03:05:19;;;;;;;2.70;1.95;;;;;;;20.66;87.29;100145.28;5063347;28;20029;-63
2023/09/18 03:07:44;;;;;;;2.70;1.88;;;;;;;20.62;87.57;100146.56;5070109;28;20028;-63
2023/09/18 03:10:13;;;;;;;2.83;1.88;;;;;;;20.60;87.34;100151.72;5069298;28;20032;-64
2023/09/18 03:12:40;;;;;;;3.00;1.60;;;;;;;20.47;87.71;100153.66;5068758;28;20035;-64
2023/09/18 03:15:06;;;;;;;3.88;2.05;;;;;;;20.45;87.77;100151.38;5067022;28;20025;-64
2023/09/18 03:17:33;;;;;;;2.20;1.88;;;;;;;20.49;88.24;100154.00;5067673;28;20033;-64
2023/09/18 03:19:59;;;;;;;3.45;2.22;;;;;;;20.53;87.97;100149.19;5068143;28;20055;-64
2023/09/18 03:22:25;;;;;;;2.42;1.98;;;;;;;20.57;87.68;100131.47;5069700;28;20468;-64
2023/09/18 03:24:52;;;;;;;2.17;1.73;;;;;;;20.58;87.44;100124.78;5073872;28;20032;-64
2023/09/18 03:27:17;;;;;;;2.80;1.90;;;;;;;20.65;87.33;100121.09;5070984;28;20478;-63
2023/09/18 03:29:43;;;;;;;3.55;2.15;;;;;;;20.61;86.86;100121.19;5075782;28;20024;-64
2023/09/18 03:32:11;;;;;;;3.38;1.95;;;;;;;20.60;87.31;100122.38;5073656;28;20040;-64
2023/09/18 03:34:38;;;;;;;3.75;1.70;;;;;;;20.65;86.97;100110.88;5068502;28;20083;-63
2023/09/18 03:37:04;;;;;;;2.97;1.70;;;;;;;20.60;86.73;100100.50;5064311;28;20186;-64
2023/09/18 03:39:29;;;;;;;2.78;1.77;;;;;;;20.61;87.00;100099.28;5067518;28;20043;-66
2023/09/18 03:41:55;;;;;;;2.65;1.75;;;;;;;20.63;86.73;100096.88;5068759;28;20083;-65
2023/09/18 03:44:21;;;;;;;7.78;1.95;;;;;;;20.57;87.41;100104.13;5073542;28;20074;-64
2023/09/18 03:46:46;;;;;;;3.28;1.90;;;;;;;20.53;87.39;100095.25;5077472;28;20039;-65
2023/09/18 03:49:11;;;;;;;2.60;1.77;;;;;;;20.56;87.57;100094.34;5065316;28;20033;-65
2023/09/18 03:51:38;;;;;;;5.50;2.30;;;;;;;20.51;87.63;100075.75;5074885;28;20437;-65
2023/09/18 03:54:03;;;;;;;3.97;2.15;;;;;;;20.45;87.90;100080.22;5061857;28;20040;-65
2023/09/18 03:56:28;;;;;;;4.72;1.95;;;;;;;20.44;87.80;100077.94;5073982;28;20081;-65
2023/09/18 03:58:55;;;;;;;2.35;1.73;;;;;;;20.44;87.84;100070.47;5063578;28;20032;-65
2023/09/18 04:01:20;;;;;;;2.25;1.50;;;;;;;20.46;87.57;100062.59;5070570;28;20041;-64
2023/09/18 04:03:46;;;;;;;3.50;1.90;;;;;;;20.42;87.89;100058.44;5067502;28;20036;-65
2023/09/18 04:06:11;;;;;;;2.88;1.92;;;;;;;20.45;87.91;100055.59;5070779;28;20648;-65
2023/09/18 04:08:36;;;;;;;2.30;1.55;;;;;;;20.47;87.76;100047.72;5081484;28;20747;-64
2023/09/18 04:11:04;;;;;;;2.83;1.95;;;;;;;20.56;87.39;100052.53;5073088;28;20086;-64
2023/09/18 04:13:29;;;;;;;3.38;1.73;;;;;;;20.52;87.27;100049.13;5068036;28;20024;-64
2023/09/18 04:15:56;;;;;;;4.32;2.35;;;;;;;20.47;87.62;100045.00;5069854;28;20051;-64
2023/09/18 04:18:22;;;;;;;2.17;1.70;;;;;;;20.55;87.07;100048.28;5067762;28;20365;-64
2023/09/18 04:20:50;;;;;;;2.67;2.03;;;;;;;20.55;87.24;100029.13;5067106;28;20016;-65
2023/09/18 04:23:21;;;;;;;3.17;1.90;;;;;;;20.59;86.95;100024.31;5074389;28;20141;-65
2023/09/18 04:25:47;;;;;;;3.85;2.08;;;;;;;20.59;86.73;100025.09;5071743;28;20697;-64
2023/09/18 04:28:18;;;;;;;3.35;2.13;;;;;;;20.53;87.00;100023.31;5068188;28;20037;-65
2023/09/18 04:30:44;;;;;;;;;;;;;;;20.51;87.55;100028.47;5054650;28;20032;-65
2023/09/18 04:33:14;;;;;;;2.72;1.88;;;;;;;20.45;87.46;100017.31;5075910;28;20262;-63
2023/09/18 04:35:40;;;;;;;2.95;2.05;;;;;;;;;;5068327;28;20121;-65
2023/09/18 04:38:08;;;;;;;3.78;2.00;;;;;;;;;;5075911;28;20024;-65
2023/09/18 04:40:34;;;;;;;2.75;1.90;;;;;;;20.51;87.20;100020.25;5061277;28;20032;-65
2023/09/18 04:43:01;;;;;;;4.60;2.47;;;;;;;20.42;87.86;100020.91;5067809;28;20028;-65
2023/09/18 04:45:27;;;;;;;3.13;1.90;;;;;;;20.44;87.62;100007.53;5068840;28;20084;-65
2023/09/18 04:48:13;;;;;;;3.58;1.75;;;;;;;20.47;87.58;99992.22;5067339;28;20401;-66
2023/09/18 04:50:38;;;;;;;3.03;1.70;;;;;;;20.47;87.70;99990.28;5023299;28;20047;-64
2023/09/18 04:53:04;;;;;;;3.05;2.03;;;;;;;20.49;87.44;99987.88;5009188;28;20133;-64
2023/09/18 04:55:29;;;;;;;3.75;1.95;;;;;;;20.49;87.18;99992.56;5023644;28;20041;-64
2023/09/18 04:57:55;;;;;;;2.85;1.88;;;;;;;20.47;88.04;99975.81;5029415;28;20558;-65
2023/09/18 05:00:23;;;;;;;3.03;2.05;;;;;;;20.51;87.26;99973.75;5024619;28;20120;-64
2023/09/18 05:02:49;;;;;;;2.53;2.13;;;;;;;20.52;87.48;99967.06;5025960;28;20052;-65
2023/09/18 05:05:14;;;;;;;2.40;1.88;;;;;;;20.55;86.97;99958.75;5026730;28;20123;-64
2023/09/18 05:07:40;;;;;;;2.75;2.13;;;;;;;20.55;86.96;99955.25;5009401;28;20132;-65
2023/09/18 05:10:06;;;;;;;2.85;1.98;;;;;;;20.58;86.72;99949.66;5008130;28;20120;-65
2023/09/18 05:12:31;;;;;;;2.60;2.03;;;;;;;20.59;86.60;99944.94;5027695;28;20135;-65
2023/09/18 05:14:58;;;;;;;4.28;2.30;;;;;;;20.59;86.26;99934.00;5020119;28;20048;-64
2023/09/18 05:17:41;;;;;;;3.40;2.03;;;;;;;20.59;86.38;99937.50;5028112;28;20109;-64
2023/09/18 05:20:07;;;;;;;4.18;1.98;;;;;;;20.48;86.13;99922.63;5027037;28;20053;-65
2023/09/18 05:22:33;;;;;;;2.65;2.17;;;;;;;20.52;86.15;99924.03;5013177;28;20038;-65
2023/09/18 05:24:58;;;;;;;2.75;2.05;;;;;;;20.55;86.34;99923.19;5017034;28;20658;-64
2023/09/18 05:27:25;;;;;;;3.50;2.03;;;;;;;20.58;86.67;99918.78;5043059;28;20146;-65
2023/09/18 05:29:50;;;;;;;2.55;1.67;;;;;;;20.66;86.16;99926.31;5066671;28;20047;-65
2023/09/18 05:32:16;;;;;;;3.50;2.10;;;;;;;20.68;86.06;99906.72;5061470;28;21502;-66
2023/09/18 05:34:41;;;;;;;2.92;1.73;;;;;;;20.65;86.28;99902.13;5064632;28;20116;-65
2023/09/18 05:37:11;;;;;;;2.72;1.73;;;;;;;20.62;86.33;99897.53;5070975;28;20518;-65
2023/09/18 05:39:36;;;;;;;3.00;2.13;;;;;;;20.62;86.16;99903.00;5072148;28;20030;-65
2023/09/18 05:42:02;;;;;;;2.72;2.00;;;;;;;20.64;85.99;99912.31;5064560;28;20037;-66
2023/09/18 05:44:27;;;;;;;3.17;2.00;;;;;;;20.65;86.08;99919.31;5062519;28;20043;-62
2023/09/18 05:46:53;;;;;;;7.55;2.30;;;;;;;20.66;86.23;99911.88;5054776;28;20051;-66
2023/09/18 05:49:18;;;;;;;3.67;2.10;;;;;;;20.71;85.91;99903.13;5065048;28;20121;-66
2023/09/18 05:51:43;;;;;;;5.03;2.25;;;;;;;20.65;85.90;99902.13;5072328;28;20687;-66
2023/09/18 05:54:09;;;;;;;3.03;2.00;;;;;;;20.68;86.23;99896.53;5062195;28;20505;-66
2023/09/18 05:56:34;;;;;;;4.78;2.25;;;;;;;20.77;86.18;99892.38;5074691;28;20127;-65
2023/09/18 05:59:00;;;;;;;3.08;1.83;;;;;;;20.82;85.73;99878.88;5057652;28;20025;-65
2023/09/18 06:01:25;;;;;;;4.18;2.20;;;;;;;20.85;85.46;99883.47;5063959;28;20032;-66
2023/09/18 06:03:51;;;;;;;2.53;1.60;;;;;;;20.82;85.73;99876.13;5065737;28;20040;-66
2023/09/18 06:06:16;;;;;;;3.80;2.03;;;;;;;20.88;85.96;99882.59;5075926;28;20090;-65
2023/09/18 06:08:42;;;;;;;3.40;2.20;;;;;;;20.97;85.68;99868.19;5077413;28;20040;-64
2023/09/18 06:11:07;;;;;;;3.58;2.42;;;;;;;21.04;85.45;99865.25;5068065;28;20029;-66
2023/09/18 06:13:34;;;;;;;3.22;2.10;;;;;;;21.07;85.10;99856.91;5075386;28;20416;-65
2023/09/18 06:16:05;;;;;;;2.92;2.05;;;;;;;21.09;85.17;99853.72;5066167;28;20045;-65
2023/09/18 06:18:30;;;;;;;;;;;;;;;21.10;85.04;99858.00;5068466;28;20365;-65
2023/09/18 06:20:56;;;;;;;3.70;1.65;;;;;;;21.16;85.63;99862.44;5067344;28;19935;-65
2023/09/18 06:23:21;;;;;;;3.95;2.03;;;;;;;21.23;85.61;99855.94;5072538;28;20040;-65
2023/09/18 06:25:47;;;;;;;3.65;2.30;;;;;;;21.26;85.54;99861.28;5069747;28;20028;-65
2023/09/18 06:28:12;;;;;;;2.92;1.85;;;;;;;21.28;85.32;99858.88;5068187;28;20044;-65
2023/09/18 06:30:38;;;;;;;3.28;2.15;;;;;;;21.23;85.28;99853.22;5078367;28;20019;-65
2023/09/18 06:33:03;;;;;;;3.08;2.20;;;;;;;21.30;85.40;99850.97;5065717;28;20471;-64
2023/09/18 06:35:29;;;;;;;4.10;2.40;;;;;;;21.38;85.12;99851.47;5069505;28;20048;-64
2023/09/18 06:37:58;;;;;;;3.75;2.13;;;;;;;21.38;84.90;99855.00;5073283;28;20028;-65
2023/09/18 06:40:25;;;;;;;4.80;2.33;;;;;;;21.44;84.35;99839.50;5076311;28;20037;-65
2023/09/18 06:42:51;;;;;;;5.70;2.20;;;;;;;21.50;84.46;99826.72;5058848;28;20119;-65
2023/09/18 06:45:17;;;;;;;2.45;1.73;;;;;;;21.58;83.95;99840.19;5074212;28;20103;-65
2023/09/18 06:47:42;;;;;;;4.00;2.22;;;;;;;21.70;84.00;99839.31;5072135;28;20238;-65
2023/09/18 06:50:09;;;;;;;3.92;2.05;;;;;;;21.75;83.35;99836.75;5064088;28;20032;-65
2023/09/18 06:52:34;;;;;;;4.03;2.20;;;;;;;21.71;83.47;99840.84;5078458;28;20028;-65
2023/09/18 06:55:00;;;;;;;7.20;2.38;;;;;;;21.68;83.63;99833.53;5064479;28;20113;-64
2023/09/18 06:57:25;;;;;;;4.80;2.60;;;;;;;21.72;83.78;99823.94;5078698;28;20051;-65
2023/09/18 06:59:51;;;;;;;5.10;2.10;;;;;;;21.75;83.97;99820.31;5070498;28;20033;-65
2023/09/18 07:02:17;;;;;;;3.22;1.73;;;;;;;21.75;83.96;99809.34;5077641;28;20089;-65
2023/09/18 07:04:45;;;;;;;3.85;2.20;;;;;;;21.65;84.15;99801.53;5070412;28;20051;-65
2023/09/18 07:07:14;;;;;;;4.97;2.28;;;;;;;21.71;84.09;99800.50;5072914;28;20047;-65
2023/09/18 07:09:41;;;;;;;3.22;1.67;;;;;;;21.77;84.36;99789.69;5072248;28;20028;-64
2023/09/18 07:12:10;;;;;;;4.65;1.92;;;;;;;21.84;84.28;99797.66;5072517;28;20033;-65
2023/09/18 07:14:37;;;;;;;3.80;2.30;;;;;;;21.92;84.03;99776.97;5077956;28;20032;-64
2023/09/18 07:17:04;;;;;;;3.28;1.92;;;;;;;21.96;84.16;99780.34;5065419;28;20123;-64
2023/09/18 07:19:29;;;;;;;4.45;2.00;;;;;;;22.10;83.74;99766.03;5080007;28;20085;-65
2023/09/18 07:21:54;;;;;;;3.35;1.90;;;;;;;22.14;83.78;99758.44;5069204;28;20032;-66
2023/09/18 07:24:20;;;;;;;3.70;2.22;;;;;;;22.23;83.91;99758.44;5074912;28;20485;-65
2023/09/18 07:26:47;;;;;;;2.70;1.55;;;;;;;22.36;83.41;99751.59;5069596;28;20036;-66
2023/09/18 07:29:15;;;;;;;3.33;1.90;;;;;;;22.47;83.14;99753.13;5073590;28;20021;-65
2023/09/18 07:31:44;;;;;;;2.35;1.52;;;;;;;22.57;82.86;99743.72;5073683;28;20071;-65
2023/09/18 07:34:10;;;;;;;3.60;2.22;;;;;;;22.78;82.45;99742.75;5070448;28;20518;-65
2023/09/18 07:36:37;;;;;;;3.72;1.77;;;;;;;23.02;82.45;99738.91;5076580;28;20051;-65
2023/09/18 07:39:06;;;;;;;2.33;1.80;;;;;;;23.21;81.42;99748.63;5072813;28;20146;-65
2023/09/18 07:41:32;;;;;;;3.70;2.17;;;;;;;23.21;79.95;99754.09;5066018;28;20442;-65
2023/09/18 07:43:59;;;;;;;3.53;1.92;;;;;;;23.26;79.47;99755.47;5066260;28;20032;-65
2023/09/18 07:46:24;;;;;;;2.35;1.63;;;;;;;23.15;79.85;99760.72;5077515;28;20033;-66
2023/09/18 07:48:50;;;;;;;4.32;1.77;;;;;;;23.26;79.89;99764.50;5065710;28;20036;-65
2023/09/18 07:51:16;;;;;;;3.50;1.80;;;;;;;23.11;79.33;99755.34;5078315;28;20036;-66
2023/09/18 07:53:42;;;;;;;2.42;1.75;;;;;;;23.15;79.67;99744.97;5070661;28;20039;-66
2023/09/18 07:56:08;;;;;;;2.08;1.75;;;;;;;23.20;79.79;99735.34;5074723;28;20039;-65
2023/09/18 07:58:38;;;;;;;2.58;1.77;;;;;;;23.32;79.58;99739.16;5069730;28;20032;-65
2023/09/18 08:01:05;;;;;;;2.15;1.70;;;;;;;23.47;78.81;99729.78;5064393;28;20036;-65
2023/09/18 08:03:30;;;;;;;3.55;1.85;;;;;;;23.45;79.09;99734.97;5067969;28;20023;-66
2023/09/18 08:05:56;;;;;;;2.58;1.90;;;;;;;23.61;79.06;99740.09;5063879;28;20036;-65
2023/09/18 08:08:30;;;;;;;5.07;1.90;;;;;;;23.67;78.22;99748.47;5077399;28;20366;-65
2023/09/18 08:10:56;;;;;;;3.00;1.67;;;;;;;23.71;77.75;99735.31;5068187;28;20049;-65
2023/09/18 08:13:22;;;;;;;2.25;1.70;;;;;;;23.86;77.60;99736.91;5077535;28;20042;-65
2023/09/18 08:15:48;;;;;;;2.72;1.40;;;;;;;23.84;77.05;99735.84;5071175;28;20033;-66
2023/09/18 08:18:14;;;;;;;2.20;1.42;;;;;;;23.90;77.04;99726.50;5071997;28;20033;-65
2023/09/18 08:20:43;;;;;;;2.25;1.58;;;;;;;23.91;77.21;99718.97;5074455;28;20042;-65
2023/09/18 08:23:10;;;;;;;2.88;2.03;;;;;;;23.78;76.98;99719.22;5069272;28;20039;-65
2023/09/18 08:25:36;;;;;;;2.47;1.60;;;;;;;23.67;77.93;99713.50;5070131;28;20073;-66
2023/09/18 08:28:03;;;;;;;2.58;1.65;;;;;;;23.71;77.61;99707.81;5069255;28;20056;-66
2023/09/18 08:30:29;;;;;;;2.25;1.50;;;;;;;23.69;78.02;99711.00;5072671;28;20032;-65
2023/09/18 08:32:54;;;;;;;2.65;1.80;;;;;;;23.76;77.32;99713.44;5069468;28;20039;-65
2023/09/18 08:35:23;;;;;;;3.40;1.63;;;;;;;23.75;77.10;99758.66;5070195;28;20436;-64
2023/09/18 08:37:48;;;;;;;2.33;1.70;;;;;;;23.79;77.11;99764.75;5071843;28;20044;-64
2023/09/18 08:40:14;;;;;;;4.13;1.75;;;;;;;23.68;77.54;99764.50;5074323;28;20044;-65
2023/09/18 08:42:52;;;;;;;2.95;1.77;;;;;;;23.68;77.17;99769.22;5068607;28;20032;-65
2023/09/18 08:45:35;;;;;;;2.47;1.60;;;;;;;23.72;77.69;99767.06;5073350;28;20074;-65
2023/09/18 08:48:00;;;;;;;3.97;1.60;;;;;;;23.67;77.38;99767.72;5063253;28;20494;-64
2023/09/18 08:50:27;;;;;;;2.28;1.60;;;;;;;23.75;76.81;99775.16;5075367;28;20046;-65
2023/09/18 08:52:54;;;;;;;2.83;1.50;;;;;;;23.55;77.26;99780.44;5068484;28;20095;-66
2023/09/18 08:55:20;;;;;;;2.17;1.42;;;;;;;23.49;77.62;99778.78;5071864;28;20043;-65
2023/09/18 08:57:46;;;;;;;3.10;1.83;;;;;;;23.26;79.21;99778.22;5067095;28;20044;-65
2023/09/18 09:00:16;;;;;;;2.28;1.65;;;;;;;23.23;79.66;99775.63;5075414;28;20100;-65
2023/09/18 09:02:43;;;;;;;2.13;1.40;;;;;;;23.34;79.60;99772.44;5070947;28;20087;-66
2023/09/18 09:05:09;;;;;;;3.75;2.08;;;;;;;23.58;78.42;99765.00;5065476;28;20740;-66
2023/09/18 09:07:34;;;;;;;2.97;1.73;;;;;;;23.57;79.91;99755.22;5076625;28;20086;-66
2023/09/18 09:10:00;;;;;;;4.43;2.10;;;;;;;23.75;78.84;99757.91;5071043;28;20036;-65
2023/09/18 09:12:53;;;;;;;3.08;1.58;;;;;;;23.66;78.97;99753.19;5068113;28;20027;-65
2023/09/18 09:15:21;;;;;;;4.93;2.10;;;;;;;23.79;78.59;99750.25;5076042;28;20044;-65
2023/09/18 09:17:46;;;;;;;2.60;1.98;;;;;;;23.54;79.66;99750.69;5070368;28;20028;-65
2023/09/18 09:20:14;;;;;;;4.22;1.85;;;;;;;23.66;79.57;99744.19;5062548;28;20436;-66
2023/09/18 09:22:41;;;;;;;2.60;1.70;;;;;;;23.60;79.62;99740.53;5076148;28;20058;-65
2023/09/18 09:25:34;;;;;;;2.25;1.42;;;;;;;23.60;80.74;99735.81;5073790;28;20473;-64
2023/09/18 09:28:01;;;;;;;4.68;1.75;;;;;;;23.77;79.97;99734.19;5065255;28;20053;-65
2023/09/18 09:30:28;;;;;;;3.40;1.75;;;;;;;23.76;78.88;99729.16;5070944;28;20044;-65
2023/09/18 09:32:55;;;;;;;3.03;1.70;;;;;;;23.72;79.02;99720.31;5071707;28;20031;-65
2023/09/18 09:35:34;;;;;;;2.83;1.60;;;;;;;23.79;77.33;99728.97;5070799;28;20163;-64
2023/09/18 09:38:07;;;;;;;2.22;1.70;;;;;;;23.79;78.00;99715.22;5062311;28;20049;-64
2023/09/18 09:40:33;;;;;;;2.25;1.50;;;;;;;23.83;79.07;99712.31;5073044;28;20067;-64
2023/09/18 09:43:01;;;;;;;3.10;1.85;;;;;;;23.98;79.29;99715.91;5066026;28;20051;-66
2023/09/18 09:45:36;;;;;;;1.90;1.25;;;;;;;24.01;78.35;99721.22;5073046;28;20507;-66
2023/09/18 09:48:06;;;;;;;2.75;1.50;;;;;;;24.04;78.50;99728.56;5062045;28;20024;-66
2023/09/18 09:50:32;;;;;;;2.72;1.73;;;;;;;23.85;78.85;99729.88;5070178;28;20039;-65
2023/09/18 09:52:58;;;;;;;3.50;1.67;;;;;;;23.77;79.92;99722.44;5068298;28;20047;-65
2023/09/18 09:55:33;;;;;;;2.03;1.70;;;;;;;23.74;80.07;99726.13;5075563;28;20064;-66
2023/09/18 09:58:05;;;;;;;2.95;1.70;;;;;;;23.60;79.64;99710.28;5068836;28;20033;-66
2023/09/18 10:00:43;;;;;;;3.20;1.65;;;;;;;23.67;80.17;99712.72;5065850;28;20039;-66
2023/09/18 10:03:10;;;;;;;2.25;1.33;;;;;;;23.92;78.79;99717.75;5063913;28;20128;-67
2023/09/18 10:05:38;;;;;;;2.90;1.40;;;;;;;23.76;79.85;99710.69;5065422;28;20024;-66
2023/09/18 10:08:09;;;;;;;2.42;1.50;;;;;;;23.92;79.78;99706.75;5071332;28;20119;-66
2023/09/18 10:10:39;;;;;;;2.95;1.73;;;;;;;24.04;79.02;99706.53;5065927;28;20089;-66
2023/09/18 10:13:10;;;;;;;2.47;1.50;;;;;;;24.20;78.73;99701.88;5071209;28;20420;-66
2023/09/18 10:15:38;;;;;;;1.98;1.50;;;;;;;24.19;79.09;99698.34;5066040;28;20028;-66
2023/09/18 10:18:08;;;;;;;1.42;1.33;;;;;;;24.13;78.61;99708.47;5065910;28;20032;-66
2023/09/18 10:20:42;;;;;;;3.00;1.67;;;;;;;24.07;79.47;99711.13;5073759;28;20449;-65
2023/09/18 10:23:19;;;;;;;2.70;1.67;;;;;;;24.08;79.13;99709.88;5068969;28;20041;-66
2023/09/18 10:25:50;;;;;;;4.07;1.77;;;;;;;24.25;78.85;99712.22;5066275;28;20047;-66
2023/09/18 10:28:16;;;;;;;2.47;1.77;;;;;;;24.27;78.99;99720.75;5070574;28;20067;-66
2023/09/18 10:30:42;;;;;;;2.33;1.67;;;;;;;24.19;79.78;99720.34;5081554;28;20032;-66
2023/09/18 10:33:09;;;;;;;3.72;1.77;;;;;;;24.12;80.14;99720.69;5071060;28;20047;-65
2023/09/18 10:35:35;;;;;;;2.28;1.50;;;;;;;24.08;80.26;99720.13;5076779;28;20484;-66
2023/09/18 10:38:06;;;;;;;3.35;1.92;;;;;;;24.13;80.37;99728.50;5075632;28;20028;-66
2023/09/18 10:40:34;;;;;;;2.42;1.77;;;;;;;24.27;79.80;99727.03;5081462;28;20089;-66
2023/09/18 10:43:02;;;;;;;1.83;1.20;;;;;;;24.44;79.97;99728.09;5074217;28;20041;-66
2023/09/18 10:45:28;;;;;;;3.47;1.75;;;;;;;24.59;79.18;99722.63;5074954;28;20587;-66
2023/09/18 10:47:55;;;;;;;2.20;1.30;;;;;;;24.75;78.30;99722.19;5071575;28;20036;-64
2023/09/18 10:50:25;;;;;;;4.22;2.17;;;;;;;24.51;78.71;99715.94;5062461;28;20033;-63
2023/09/18 10:52:51;;;;;;;2.77;1.40;;;;;;;24.82;77.87;99708.81;5073062;28;20075;-65
2023/09/18 10:55:16;;;;;;;2.35;1.50;;;;;;;24.82;77.97;99710.78;5075862;28;20511;-64
2023/09/18 10:57:51;;;;;;;1.77;1.30;;;;;;;24.78;77.12;99726.75;5079809;28;20040;-66
2023/09/18 11:00:17;;;;;;;3.58;1.40;;;;;;;24.61;78.04;99728.41;5076886;28;20117;-63
2023/09/18 11:02:42;;;;;;;3.17;1.80;;;;;;;24.65;78.40;99729.75;5077846;28;20035;-64
2023/09/18 11:05:08;;;;;;;2.75;1.05;;;;;;;24.79;77.99;99733.78;5070379;28;20136;-64
2023/09/18 11:07:33;;;;;;;2.15;1.25;;;;;;;24.86;78.80;99739.69;5076135;28;20032;-65
2023/09/18 11:09:59;;;;;;;5.45;1.75;;;;;;;25.04;77.38;99736.75;5076427;28;20017;-65
2023/09/18 11:12:43;;;;;;;2.35;1.50;;;;;;;25.02;78.23;99722.69;5078659;28;20132;-64
2023/09/18 11:15:10;;;;;;;2.65;1.48;;;;;;;24.91;78.96;99719.72;5068264;28;20044;-65
2023/09/18 11:17:39;;;;;;;3.45;2.20;;;;;;;24.81;80.04;99726.56;5078623;28;20510;-65
2023/09/18 11:20:19;;;;;;;2.15;1.30;;;;;;;24.60;81.09;99722.13;5069590;28;20039;-63
2023/09/18 11:22:48;;;;;;;3.00;1.42;;;;;;;24.83;81.04;99728.84;5073609;28;20456;-64
2023/09/18 11:25:37;;;;;;;4.22;1.20;;;;;;;24.97;80.34;99722.59;5070863;28;20070;-65
2023/09/18 11:28:03;;;;;;;2.65;1.27;;;;;;;25.18;79.68;99720.66;5068747;28;20048;-64
2023/09/18 11:30:29;;;;;;;1.83;1.20;;;;;;;25.12;78.98;99715.06;5077791;28;20024;-67
2023/09/18 11:32:55;;;;;;;2.75;1.48;;;;;;;25.26;78.11;99719.78;5076173;28;20039;-65